Aeroporto :
LOGIN :

Iscrizione | Disclaimer

   EN    FR    IT 

 










Sommario :    VFR   VFR Marginale   IFR   IFR Intensivo   IFR Molto Intensivo
Visibilità : 
Base nubi : 
>= 8 km
>= 3000ft
5 / 8 km
1000 / 3000 ft
1500m / 5 km
500 / 1000 ft
800 / 1500m
200 / 500 ft
< 800m
< 200 ft
Simboli :   Temporali  Nebbia  Neve Forte  Precipitazioni Forti  Vento > 20 kt
SIGMETs :   Varie  Temporali  Ghiacco  Turbolenza  Onda orograficha  Ceneri Vulcaniche






- Altitudine del aeroporto : 425 ft
- Codice IATA : DTM


EDLW - Dortmund

ULTIMO METAR :
  • 312150Z AUTO 20012KT 9999 // OVC020/// 13/11 Q1014

METARs OBSOLETI :
  • 312120Z AUTO 21015KT 9999 // FEW010/// SCT021/// OVC036/// 13/11 Q1014
  • 312050Z 20011KT 9999 BKN029 13/10 Q1014
  • 312020Z 20013KT 9999 -RA BKN029 13/10 Q1014
  • 311950Z 20013KT 9999 VCSH FEW010 BKN036 13/10 Q1014
  • 311920Z 19015KT 9999 SCT031 15/08 Q1014
  • 311850Z 20016KT 9999 FEW031 15/08 Q1014

TAF TAF EDLW
Valido dal 31 a 18 ore il 01 a 18 ore UTC


311700Z 3118/0118 19009KT 9999 BKN035
PROB30
TEMPO 3120/3122 20014KT RA
BECMG 0107/0110 20014KT
TEMPO 0112/0118 21015G25KT BKN012
PROB30
TEMPO 0113/0118 4500 -DZRA BKN008



MetMap, La meteo Aeronautica in un colpo d'occhio ! - Copyright ORBIFLY Dicembre 2007 - Disclaimer

ORBIFLY MET'MAP TEAM :

Programmazione e sviluppo : Alexandra Zaïnal
Concezione : Baudouin d'Aumeries
Aiuto per la programmazione : Marc-Olivier Méhu
Supporto tecnico e logistico : Manuel Goepfert
Aiuto per la traduzione : Arnaldo La Scala

Contatto : metmap@orbifly.com




FONTI E CREDITI :

   NOAA